createdAt,value
2022-11-15T00:00:51.054Z,51.12
2022-11-15T00:03:18.165Z,51.18
2022-11-15T00:05:45.273Z,51.20
2022-11-15T00:08:12.458Z,51.19
2022-11-15T00:10:39.600Z,51.05
2022-11-15T00:13:06.851Z,51.28
2022-11-15T00:15:33.905Z,51.26
2022-11-15T00:18:00.986Z,51.26
2022-11-15T00:20:28.041Z,51.06
2022-11-15T00:22:55.093Z,51.11
2022-11-15T00:25:22.181Z,51.16
2022-11-15T00:27:49.254Z,51.29
2022-11-15T00:30:16.360Z,51.24
2022-11-15T00:32:43.413Z,51.22
2022-11-15T00:35:10.483Z,51.23
2022-11-15T00:37:37.609Z,51.27
2022-11-15T00:40:04.684Z,51.10
2022-11-15T00:42:31.753Z,51.26
2022-11-15T00:44:58.826Z,51.24
2022-11-15T00:47:25.905Z,51.31
2022-11-15T00:49:52.975Z,51.20
2022-11-15T00:52:20.029Z,51.17
2022-11-15T00:54:47.103Z,51.15
2022-11-15T00:57:14.176Z,51.29
2022-11-15T00:59:41.235Z,51.53
2022-11-15T01:02:08.305Z,51.27
2022-11-15T01:04:35.376Z,51.29
2022-11-15T01:07:02.485Z,51.21
2022-11-15T01:09:29.599Z,51.22
2022-11-15T01:11:56.659Z,51.41
2022-11-15T01:14:25.510Z,51.30
2022-11-15T01:16:52.954Z,51.22
2022-11-15T01:19:20.009Z,51.19
2022-11-15T01:21:47.134Z,51.15
2022-11-15T01:24:14.190Z,51.32
2022-11-15T01:26:41.294Z,51.19
2022-11-15T01:29:08.406Z,51.28
2022-11-15T01:31:35.493Z,51.32
2022-11-15T01:34:02.557Z,51.22
2022-11-15T01:36:29.644Z,51.41
2022-11-15T01:38:56.726Z,51.35
2022-11-15T01:41:23.785Z,51.28
2022-11-15T01:43:50.881Z,51.51
2022-11-15T01:46:17.943Z,51.36
2022-11-15T01:48:45.007Z,51.14
2022-11-15T01:51:12.087Z,51.41
2022-11-15T01:53:39.137Z,51.22
2022-11-15T01:56:06.224Z,51.23
2022-11-15T01:58:33.368Z,51.15
2022-11-15T02:01:00.493Z,51.54
2022-11-15T02:03:27.732Z,51.36
2022-11-15T02:05:54.899Z,51.42
2022-11-15T02:08:22.029Z,51.34
2022-11-15T02:10:49.177Z,51.53
2022-11-15T02:13:16.239Z,51.43
2022-11-15T02:15:43.337Z,51.38
2022-11-15T02:18:11.673Z,51.47
2022-11-15T02:20:38.737Z,51.24
2022-11-15T02:23:05.798Z,51.38
2022-11-15T02:25:32.865Z,51.25
2022-11-15T02:27:59.927Z,51.30
2022-11-15T02:30:27.031Z,51.24
2022-11-15T02:32:54.148Z,51.46
2022-11-15T02:35:21.206Z,51.38
2022-11-15T02:37:48.288Z,51.29
2022-11-15T02:40:15.400Z,51.16
2022-11-15T02:43:04.442Z,51.45
2022-11-15T02:45:35.215Z,51.30
2022-11-15T02:48:02.278Z,51.47
2022-11-15T02:50:29.379Z,51.36
2022-11-15T02:52:56.467Z,51.44
2022-11-15T02:55:23.533Z,51.38
2022-11-15T02:57:50.609Z,51.36
2022-11-15T03:00:17.687Z,51.35
2022-11-15T03:02:44.821Z,51.31
2022-11-15T03:05:11.903Z,51.38
2022-11-15T03:07:39.018Z,51.42
2022-11-15T03:10:06.111Z,51.51
2022-11-15T03:12:33.182Z,51.36
2022-11-15T03:15:00.247Z,51.29
2022-11-15T03:17:27.349Z,51.23
2022-11-15T03:19:54.700Z,51.30
2022-11-15T03:22:21.770Z,51.24
2022-11-15T03:24:49.014Z,51.39
2022-11-15T03:27:16.110Z,51.38
2022-11-15T03:29:43.194Z,51.42
2022-11-15T03:32:10.276Z,51.13
2022-11-15T03:34:37.335Z,51.27
2022-11-15T03:37:04.420Z,51.29
2022-11-15T03:39:31.539Z,51.40
2022-11-15T03:41:58.621Z,51.21
2022-11-15T03:44:25.697Z,51.31
2022-11-15T03:46:52.765Z,51.46
2022-11-15T03:49:19.900Z,51.24
2022-11-15T03:51:46.961Z,51.42
2022-11-15T03:54:14.067Z,51.43
2022-11-15T03:56:41.135Z,51.26
2022-11-15T03:59:08.203Z,51.34
2022-11-15T04:01:35.322Z,51.17
2022-11-15T04:04:02.431Z,51.20
2022-11-15T04:06:29.582Z,51.16
2022-11-15T04:08:56.650Z,51.23
2022-11-15T04:11:23.721Z,51.27
2022-11-15T04:13:50.868Z,51.31
2022-11-15T04:16:17.929Z,51.42
2022-11-15T04:18:44.989Z,51.46
2022-11-15T04:21:30.806Z,51.28
2022-11-15T04:24:13.303Z,51.43
2022-11-15T04:26:40.519Z,51.27
2022-11-15T04:29:26.156Z,51.18
2022-11-15T04:31:53.214Z,51.46
2022-11-15T04:34:20.291Z,51.14
2022-11-15T04:37:06.178Z,51.27
2022-11-15T04:39:33.242Z,51.33
2022-11-15T04:42:00.322Z,51.27
2022-11-15T04:44:27.396Z,51.43
2022-11-15T04:46:54.490Z,51.35
2022-11-15T04:49:21.547Z,51.28
2022-11-15T04:51:49.011Z,51.21
2022-11-15T04:54:16.134Z,51.42
2022-11-15T04:56:43.206Z,51.26
2022-11-15T04:59:10.298Z,51.30
2022-11-15T05:01:41.940Z,51.12
2022-11-15T05:04:21.053Z,51.19
2022-11-15T05:06:48.186Z,51.31
2022-11-15T05:09:15.646Z,51.34
2022-11-15T05:11:42.710Z,51.24
2022-11-15T05:14:09.819Z,51.17
2022-11-15T05:16:36.926Z,51.22
2022-11-15T05:19:04.214Z,51.25
2022-11-15T05:21:31.374Z,51.22
2022-11-15T05:23:58.453Z,51.34
2022-11-15T05:26:25.532Z,51.36
2022-11-15T05:28:52.609Z,51.33
2022-11-15T05:31:19.674Z,51.07
2022-11-15T05:33:46.807Z,51.18
2022-11-15T05:36:13.878Z,50.96
2022-11-15T05:38:40.940Z,51.27
2022-11-15T05:41:08.013Z,51.02
2022-11-15T05:43:35.099Z,51.10
2022-11-15T05:46:02.171Z,50.96
2022-11-15T05:48:29.247Z,51.09
2022-11-15T05:50:56.306Z,51.28
2022-11-15T05:53:23.377Z,50.99
2022-11-15T05:55:50.481Z,51.16
2022-11-15T05:58:17.556Z,50.94
2022-11-15T06:00:44.638Z,51.18
2022-11-15T06:03:11.765Z,51.01
2022-11-15T06:05:38.848Z,51.03
2022-11-15T06:08:05.978Z,51.06
2022-11-15T06:10:33.078Z,50.85
2022-11-15T06:13:00.242Z,50.99
2022-11-15T06:15:27.315Z,51.03
2022-11-15T06:17:58.288Z,51.07
2022-11-15T06:20:25.355Z,50.92
2022-11-15T06:22:52.458Z,51.00
2022-11-15T06:25:19.514Z,50.93
2022-11-15T06:27:46.577Z,50.88
2022-11-15T06:30:13.651Z,50.83
2022-11-15T06:32:40.720Z,50.86
2022-11-15T06:35:07.770Z,50.95
2022-11-15T06:37:34.841Z,50.80
2022-11-15T06:40:01.901Z,50.72
2022-11-15T06:42:29.015Z,50.72
2022-11-15T06:44:56.292Z,50.85
2022-11-15T06:47:23.363Z,50.58
2022-11-15T06:49:50.431Z,50.77
2022-11-15T06:52:19.505Z,50.71
2022-11-15T06:54:46.565Z,50.81
2022-11-15T06:57:13.701Z,50.78
2022-11-15T06:59:41.017Z,50.68
2022-11-15T07:02:08.123Z,50.64
2022-11-15T07:04:35.786Z,50.85
2022-11-15T07:07:03.138Z,50.61
2022-11-15T07:09:30.228Z,50.67
2022-11-15T07:11:57.281Z,50.81
2022-11-15T07:14:24.355Z,50.88
2022-11-15T07:16:51.434Z,50.70
2022-11-15T07:19:18.713Z,50.65
2022-11-15T07:21:45.800Z,50.51
2022-11-15T07:24:12.884Z,50.67
2022-11-15T07:26:39.951Z,50.73
2022-11-15T07:29:07.022Z,50.79
2022-11-15T07:31:34.251Z,50.61
2022-11-15T07:34:01.726Z,50.63
2022-11-15T07:36:30.582Z,50.60
2022-11-15T07:38:57.644Z,50.61
2022-11-15T07:41:24.721Z,50.44
2022-11-15T07:43:51.792Z,50.60
2022-11-15T07:46:18.906Z,50.32
2022-11-15T07:48:46.027Z,50.34
2022-11-15T07:51:14.270Z,50.54
2022-11-15T07:53:41.623Z,50.50
2022-11-15T07:56:08.750Z,50.51
2022-11-15T07:58:35.940Z,50.35
2022-11-15T08:01:03.117Z,50.32
2022-11-15T08:03:30.666Z,50.58
2022-11-15T08:05:57.949Z,50.46
2022-11-15T08:08:25.114Z,50.43
2022-11-15T08:10:52.243Z,50.26
2022-11-15T08:13:19.430Z,50.44
2022-11-15T08:15:46.529Z,50.48
2022-11-15T08:18:13.680Z,50.33
2022-11-15T08:20:40.752Z,50.36
2022-11-15T08:23:07.814Z,50.32
2022-11-15T08:25:34.938Z,50.56
2022-11-15T08:28:02.139Z,50.30
2022-11-15T08:30:29.417Z,50.27
2022-11-15T08:32:56.508Z,50.44
2022-11-15T08:35:28.656Z,50.46
2022-11-15T08:37:56.198Z,50.56
2022-11-15T08:40:23.829Z,50.56
2022-11-15T08:42:50.934Z,50.52
2022-11-15T08:45:18.012Z,50.41
2022-11-15T08:47:47.423Z,50.31
2022-11-15T08:50:18.266Z,50.37
2022-11-15T08:52:45.402Z,50.45
2022-11-15T08:55:12.490Z,50.51
2022-11-15T08:57:39.559Z,50.68
2022-11-15T09:00:06.637Z,50.48
2022-11-15T09:02:33.725Z,50.49
2022-11-15T09:05:00.933Z,50.42
2022-11-15T09:07:30.904Z,50.39
2022-11-15T09:09:58.104Z,50.62
2022-11-15T09:12:25.191Z,50.53
2022-11-15T09:14:52.304Z,50.49
2022-11-15T09:17:24.483Z,50.57
2022-11-15T09:19:52.198Z,50.24
2022-11-15T09:22:19.311Z,50.48
2022-11-15T09:24:46.389Z,50.58
2022-11-15T09:27:14.260Z,50.56
2022-11-15T09:29:41.394Z,50.43
2022-11-15T09:32:08.489Z,50.50
2022-11-15T09:34:35.658Z,50.55
2022-11-15T09:37:02.744Z,50.49
2022-11-15T09:39:29.854Z,50.52
2022-11-15T09:41:57.034Z,50.44
2022-11-15T09:44:25.503Z,50.44
2022-11-15T09:46:52.894Z,50.36
2022-11-15T09:49:19.990Z,50.39
2022-11-15T09:51:51.008Z,50.53
2022-11-15T09:54:51.128Z,50.43
2022-11-15T09:57:05.234Z,50.40
2022-11-15T09:59:32.538Z,50.33
2022-11-15T10:01:59.638Z,50.22
2022-11-15T10:04:26.705Z,50.38
2022-11-15T10:06:53.817Z,50.42
2022-11-15T10:09:23.758Z,50.47
2022-11-15T10:11:51.040Z,50.19
2022-11-15T10:14:18.110Z,50.16
2022-11-15T10:16:45.203Z,50.09
2022-11-15T10:19:12.351Z,50.29
2022-11-15T10:21:39.455Z,50.19
2022-11-15T10:24:06.551Z,50.21
2022-11-15T10:26:33.683Z,50.17
2022-11-15T10:29:00.749Z,50.36
2022-11-15T10:31:28.548Z,50.29
2022-11-15T10:33:55.625Z,50.23
2022-11-15T10:36:23.175Z,50.38
2022-11-15T10:38:50.366Z,50.14
2022-11-15T10:41:17.441Z,50.01
2022-11-15T10:43:44.538Z,50.16
2022-11-15T10:46:31.804Z,50.10
2022-11-15T10:48:58.760Z,50.13
2022-11-15T10:51:29.120Z,50.28
2022-11-15T10:53:56.207Z,50.25
2022-11-15T10:56:23.350Z,50.23
2022-11-15T10:58:50.422Z,49.97
2022-11-15T11:01:17.675Z,50.14
2022-11-15T11:03:44.850Z,50.24
2022-11-15T11:06:12.012Z,50.14
2022-11-15T11:08:39.088Z,50.05
2022-11-15T11:11:06.197Z,50.06
2022-11-15T11:13:33.322Z,50.04
2022-11-15T11:16:00.440Z,50.14
2022-11-15T11:18:28.423Z,50.23
2022-11-15T11:20:55.498Z,50.20
2022-11-15T11:23:22.833Z,50.11
2022-11-15T11:25:49.891Z,50.09
2022-11-15T11:28:17.009Z,50.26
2022-11-15T11:30:44.082Z,50.05
2022-11-15T11:33:11.149Z,50.16
2022-11-15T11:35:38.236Z,50.18
2022-11-15T11:38:05.761Z,50.28
2022-11-15T11:40:33.087Z,50.22
2022-11-15T11:43:00.849Z,50.32
2022-11-15T11:45:27.936Z,51.48
2022-11-15T11:47:55.015Z,51.32
2022-11-15T11:50:22.127Z,51.84
2022-11-15T11:52:49.193Z,52.22
2022-11-15T11:55:16.520Z,53.55
2022-11-15T11:57:43.788Z,52.82
2022-11-15T12:00:10.849Z,52.39
2022-11-15T12:02:38.038Z,51.94
2022-11-15T12:05:05.226Z,51.68
2022-11-15T12:07:32.455Z,51.75
2022-11-15T12:09:59.908Z,51.65
2022-11-15T12:12:26.969Z,51.67
2022-11-15T12:14:54.145Z,51.55
2022-11-15T12:17:21.475Z,51.50
2022-11-15T12:19:48.588Z,51.21
2022-11-15T12:22:15.662Z,51.29
2022-11-15T12:24:42.843Z,51.18
2022-11-15T12:27:09.927Z,51.15
2022-11-15T12:29:37.111Z,50.80
2022-11-15T12:32:06.001Z,50.79
2022-11-15T12:34:33.067Z,50.90
2022-11-15T12:37:02.732Z,50.95
2022-11-15T12:39:29.791Z,50.99
2022-11-15T12:41:56.888Z,50.99
2022-11-15T12:44:23.965Z,50.83
2022-11-15T12:46:51.026Z,50.82
2022-11-15T12:49:18.090Z,50.96
2022-11-15T12:51:45.166Z,50.72
2022-11-15T12:54:12.234Z,50.78
2022-11-15T12:56:41.258Z,50.77
2022-11-15T12:59:08.325Z,50.63
2022-11-15T13:01:36.272Z,50.84
2022-11-15T13:04:03.679Z,50.69
2022-11-15T13:06:30.996Z,50.60
2022-11-15T13:08:58.083Z,50.80
2022-11-15T13:11:25.186Z,50.64
2022-11-15T13:13:52.281Z,50.63
2022-11-15T13:16:19.363Z,50.48
2022-11-15T13:18:46.478Z,50.56
2022-11-15T13:21:33.514Z,50.41
2022-11-15T13:24:00.604Z,50.67
2022-11-15T13:26:27.690Z,50.49
2022-11-15T13:28:56.679Z,50.60
2022-11-15T13:31:23.848Z,50.48
2022-11-15T13:33:50.968Z,50.60
2022-11-15T13:36:18.042Z,50.28
2022-11-15T13:38:45.161Z,50.46
2022-11-15T13:41:12.257Z,50.37
2022-11-15T13:43:39.660Z,50.58
2022-11-15T13:46:06.733Z,50.31
2022-11-15T13:48:34.973Z,50.31
2022-11-15T13:51:02.134Z,50.09
2022-11-15T13:53:29.233Z,50.22
2022-11-15T13:55:56.365Z,50.35
2022-11-15T13:58:24.341Z,50.33
2022-11-15T14:00:54.372Z,50.50
2022-11-15T14:03:21.514Z,50.47
2022-11-15T14:05:48.668Z,50.33
2022-11-15T14:08:15.731Z,50.11
2022-11-15T14:10:42.840Z,50.37
2022-11-15T14:13:09.908Z,50.20
2022-11-15T14:15:37.019Z,50.11
2022-11-15T14:18:04.099Z,50.12
2022-11-15T14:20:31.883Z,50.32
2022-11-15T14:22:59.006Z,50.29
2022-11-15T14:25:26.281Z,51.33
2022-11-15T14:27:53.431Z,51.17
2022-11-15T14:30:20.578Z,51.40
2022-11-15T14:32:47.707Z,50.78
2022-11-15T14:35:14.867Z,51.11
2022-11-15T14:37:41.922Z,50.99
2022-11-15T14:40:10.769Z,51.01
2022-11-15T14:42:37.820Z,50.67
2022-11-15T14:45:04.907Z,50.69
2022-11-15T14:47:32.019Z,50.74
2022-11-15T14:49:59.109Z,50.81
2022-11-15T14:52:31.838Z,50.67
2022-11-15T14:55:01.083Z,50.60
2022-11-15T14:57:28.157Z,50.67
2022-11-15T14:59:55.233Z,50.82
2022-11-15T15:02:22.359Z,50.63
2022-11-15T15:04:49.465Z,50.50
2022-11-15T15:07:16.695Z,50.55
2022-11-15T15:09:43.882Z,50.51
2022-11-15T15:12:10.951Z,50.64
2022-11-15T15:14:38.016Z,50.67
2022-11-15T15:17:05.835Z,50.57
2022-11-15T15:19:33.127Z,50.48
2022-11-15T15:22:00.262Z,50.60
2022-11-15T15:24:27.314Z,50.48
2022-11-15T15:26:54.393Z,50.37
2022-11-15T15:29:21.456Z,50.57
2022-11-15T15:31:48.540Z,50.47
2022-11-15T15:34:16.981Z,50.50
2022-11-15T15:36:44.242Z,50.64
2022-11-15T15:39:12.183Z,50.37
2022-11-15T15:41:39.283Z,50.25
2022-11-15T15:44:06.338Z,50.69
2022-11-15T15:46:33.484Z,50.48
2022-11-15T15:49:00.600Z,50.50
2022-11-15T15:51:27.712Z,50.74
2022-11-15T15:53:58.146Z,50.62
2022-11-15T15:56:25.473Z,50.82
2022-11-15T15:58:53.569Z,50.97
2022-11-15T16:01:20.821Z,50.71
2022-11-15T16:03:47.986Z,50.53
2022-11-15T16:06:15.446Z,50.93
2022-11-15T16:09:08.356Z,50.54
2022-11-15T16:11:29.566Z,50.55
2022-11-15T16:13:56.639Z,50.59
2022-11-15T16:16:23.789Z,50.76
2022-11-15T16:18:51.351Z,50.64
2022-11-15T16:21:18.417Z,50.65
2022-11-15T16:23:45.512Z,50.70
2022-11-15T16:26:12.599Z,50.58
2022-11-15T16:28:39.722Z,50.76
2022-11-15T16:31:06.778Z,50.46
2022-11-15T16:33:34.391Z,51.01
2022-11-15T16:36:01.681Z,51.50
2022-11-15T16:38:28.804Z,51.42
2022-11-15T16:40:55.968Z,51.35
2022-11-15T16:43:23.095Z,51.33
2022-11-15T16:45:50.156Z,51.45
2022-11-15T16:48:17.308Z,50.80
2022-11-15T16:50:44.369Z,50.97
2022-11-15T16:53:11.449Z,51.04
2022-11-15T16:55:38.541Z,50.83
2022-11-15T16:58:05.619Z,50.67
2022-11-15T17:00:32.721Z,50.91
2022-11-15T17:02:59.919Z,50.75
2022-11-15T17:05:30.059Z,50.87
2022-11-15T17:07:57.126Z,50.95
2022-11-15T17:10:24.261Z,51.01
2022-11-15T17:12:51.408Z,50.80
2022-11-15T17:15:18.507Z,50.66
2022-11-15T17:17:45.644Z,51.08
2022-11-15T17:20:12.713Z,51.21
2022-11-15T17:22:39.793Z,51.15
2022-11-15T17:25:07.163Z,51.06
2022-11-15T17:27:34.380Z,51.25
2022-11-15T17:30:01.471Z,50.98
2022-11-15T17:32:28.570Z,50.89
2022-11-15T17:34:55.629Z,51.00
2022-11-15T17:37:22.707Z,51.21
2022-11-15T17:39:49.816Z,51.42
2022-11-15T17:42:16.922Z,51.40
2022-11-15T17:44:44.259Z,51.27
2022-11-15T17:47:11.537Z,51.01
2022-11-15T17:49:40.806Z,51.60
2022-11-15T17:52:08.119Z,51.99
2022-11-15T17:54:35.901Z,52.00
2022-11-15T17:57:02.984Z,51.89
2022-11-15T17:59:30.096Z,51.66
2022-11-15T18:01:57.190Z,51.54
2022-11-15T18:04:28.312Z,52.53
2022-11-15T18:06:56.613Z,52.28
2022-11-15T18:09:24.824Z,51.93
2022-11-15T18:11:53.563Z,52.04
2022-11-15T18:14:20.714Z,52.05
2022-11-15T18:16:47.857Z,51.89
2022-11-15T18:19:15.231Z,51.57
2022-11-15T18:21:57.477Z,51.61
2022-11-15T18:24:24.699Z,51.31
2022-11-15T18:26:51.920Z,51.61
2022-11-15T18:29:19.809Z,51.50
2022-11-15T18:31:50.053Z,51.56
2022-11-15T18:34:17.666Z,51.34
2022-11-15T18:36:44.725Z,51.39
2022-11-15T18:39:16.454Z,51.46
2022-11-15T18:41:43.693Z,51.31
2022-11-15T18:44:10.807Z,51.37
2022-11-15T18:46:39.327Z,51.34
2022-11-15T18:49:07.700Z,51.44
2022-11-15T18:51:34.830Z,51.50
2022-11-15T18:54:01.933Z,51.60
2022-11-15T18:56:29.016Z,51.33
2022-11-15T18:58:56.432Z,51.59
2022-11-15T19:01:23.665Z,51.25
2022-11-15T19:03:50.796Z,51.55
2022-11-15T19:06:17.980Z,51.36
2022-11-15T19:08:45.194Z,51.61
2022-11-15T19:11:14.852Z,51.36
2022-11-15T19:13:42.031Z,51.64
2022-11-15T19:16:09.155Z,51.45
2022-11-15T19:18:36.269Z,51.74
2022-11-15T19:21:03.420Z,51.78
2022-11-15T19:23:30.755Z,51.61
2022-11-15T19:25:58.918Z,51.95
2022-11-15T19:28:26.046Z,51.97
2022-11-15T19:30:53.237Z,51.78
2022-11-15T19:33:26.512Z,51.93
2022-11-15T19:35:55.083Z,52.10
2022-11-15T19:38:22.187Z,51.99
2022-11-15T19:40:49.506Z,52.12
2022-11-15T19:43:16.716Z,52.06
2022-11-15T19:45:43.882Z,52.26
2022-11-15T19:48:11.169Z,52.18
2022-11-15T19:50:40.336Z,52.34
2022-11-15T19:53:07.450Z,52.18
2022-11-15T19:55:34.637Z,52.35
2022-11-15T19:58:01.960Z,52.78
2022-11-15T20:00:29.287Z,52.39
2022-11-15T20:02:56.395Z,51.98
2022-11-15T20:05:23.573Z,51.76
2022-11-15T20:07:50.750Z,51.63
2022-11-15T20:10:20.674Z,52.11
2022-11-15T20:12:48.101Z,52.08
2022-11-15T20:15:15.210Z,52.14
2022-11-15T20:17:42.482Z,52.08
2022-11-15T20:20:09.619Z,52.21
2022-11-15T20:22:36.776Z,51.92
2022-11-15T20:25:03.917Z,52.18
2022-11-15T20:27:31.098Z,52.21
2022-11-15T20:29:58.567Z,52.07
2022-11-15T20:32:25.844Z,52.32
2022-11-15T20:34:54.217Z,52.02
2022-11-15T20:37:21.602Z,52.09
2022-11-15T20:39:48.685Z,52.02
2022-11-15T20:42:15.813Z,51.93
2022-11-15T20:44:42.980Z,52.18
2022-11-15T20:47:10.104Z,52.03
2022-11-15T20:49:37.208Z,51.90
2022-11-15T20:52:04.422Z,51.83
2022-11-15T20:54:31.494Z,51.93
2022-11-15T20:56:58.582Z,51.99
2022-11-15T20:59:25.698Z,51.65
2022-11-15T21:01:53.004Z,51.86
2022-11-15T21:04:20.194Z,51.59
2022-11-15T21:06:48.817Z,51.63
2022-11-15T21:09:35.254Z,51.44
2022-11-15T21:12:11.305Z,51.41
2022-11-15T21:14:38.381Z,51.59
2022-11-15T21:17:05.478Z,51.83
2022-11-15T21:19:36.874Z,51.61
2022-11-15T21:22:04.215Z,51.60
2022-11-15T21:24:31.336Z,51.79
2022-11-15T21:26:58.465Z,51.84
2022-11-15T21:29:25.583Z,51.78
2022-11-15T21:31:53.460Z,51.92
2022-11-15T21:34:20.582Z,52.29
2022-11-15T21:36:47.698Z,52.36
2022-11-15T21:39:14.844Z,52.18
2022-11-15T21:41:42.128Z,52.16
2022-11-15T21:44:09.231Z,52.07
2022-11-15T21:46:37.336Z,52.06
2022-11-15T21:49:05.068Z,52.53
2022-11-15T21:51:32.141Z,52.12
2022-11-15T21:53:59.227Z,52.36
2022-11-15T21:56:26.319Z,52.07
2022-11-15T21:58:53.875Z,51.86
2022-11-15T22:01:39.781Z,51.41
2022-11-15T22:04:06.917Z,50.75
2022-11-15T22:06:34.081Z,50.27
2022-11-15T22:09:01.189Z,50.35
2022-11-15T22:11:28.471Z,49.93
2022-11-15T22:13:55.558Z,50.33
2022-11-15T22:16:22.623Z,50.23
2022-11-15T22:18:49.715Z,49.92
2022-11-15T22:21:16.870Z,50.17
2022-11-15T22:23:43.975Z,50.42
2022-11-15T22:26:11.190Z,50.15
2022-11-15T22:28:38.366Z,50.49
2022-11-15T22:31:05.501Z,50.21
2022-11-15T22:33:32.638Z,50.44
2022-11-15T22:35:59.723Z,50.30
2022-11-15T22:38:26.862Z,50.25
2022-11-15T22:40:53.977Z,50.24
2022-11-15T22:43:21.081Z,50.26
2022-11-15T22:45:48.934Z,50.45
2022-11-15T22:48:16.019Z,50.14
2022-11-15T22:50:43.094Z,50.13
2022-11-15T22:53:10.195Z,50.02
2022-11-15T22:55:37.297Z,50.16
2022-11-15T22:58:04.469Z,50.18
2022-11-15T23:00:31.558Z,50.24
2022-11-15T23:02:58.779Z,50.17
2022-11-15T23:05:25.894Z,50.34
2022-11-15T23:07:52.982Z,50.27
2022-11-15T23:10:39.114Z,50.40
2022-11-15T23:13:18.309Z,50.09
2022-11-15T23:16:04.235Z,50.01
2022-11-15T23:18:31.744Z,49.93
2022-11-15T23:20:59.014Z,49.93
2022-11-15T23:23:26.192Z,50.01
2022-11-15T23:25:53.269Z,50.27
2022-11-15T23:28:20.385Z,50.21
2022-11-15T23:31:06.323Z,50.33
2022-11-15T23:33:52.023Z,50.09
2022-11-15T23:36:19.109Z,50.28
2022-11-15T23:38:46.198Z,50.13
2022-11-15T23:41:13.420Z,50.22
2022-11-15T23:43:40.537Z,50.10
2022-11-15T23:46:07.615Z,50.23
2022-11-15T23:48:34.956Z,49.91
2022-11-15T23:51:02.476Z,50.15
2022-11-15T23:53:29.566Z,49.84
2022-11-15T23:55:56.662Z,49.60
2022-11-15T23:58:23.766Z,49.69
